sensor_id;sensor_type;location;lat;lon;timestamp;P1;durP1;ratioP1;P2;durP2;ratioP2
42294;SDS011;27947;47.556;18.718;2023-05-02T00:00:45;6.28;;;1.20;;
42294;SDS011;27947;47.556;18.718;2023-05-02T00:03:10;2.60;;;1.00;;
42294;SDS011;27947;47.556;18.718;2023-05-02T00:05:36;4.30;;;1.13;;
42294;SDS011;27947;47.556;18.718;2023-05-02T00:08:02;4.32;;;1.23;;
42294;SDS011;27947;47.556;18.718;2023-05-02T00:10:27;3.22;;;1.10;;
42294;SDS011;27947;47.556;18.718;2023-05-02T00:12:52;2.10;;;1.02;;
42294;SDS011;27947;47.556;18.718;2023-05-02T00:15:18;2.38;;;1.00;;
42294;SDS011;27947;47.556;18.718;2023-05-02T00:17:43;3.67;;;1.40;;
42294;SDS011;27947;47.556;18.718;2023-05-02T00:20:09;1.95;;;1.13;;
42294;SDS011;27947;47.556;18.718;2023-05-02T00:22:35;2.25;;;1.10;;
42294;SDS011;27947;47.556;18.718;2023-05-02T00:25:01;1.90;;;1.13;;
42294;SDS011;27947;47.556;18.718;2023-05-02T00:27:26;2.63;;;1.30;;
42294;SDS011;27947;47.556;18.718;2023-05-02T00:29:52;3.75;;;1.30;;
42294;SDS011;27947;47.556;18.718;2023-05-02T00:32:18;1.73;;;1.05;;
42294;SDS011;27947;47.556;18.718;2023-05-02T00:34:43;3.63;;;1.13;;
42294;SDS011;27947;47.556;18.718;2023-05-02T00:37:08;6.60;;;1.42;;
42294;SDS011;27947;47.556;18.718;2023-05-02T00:39:34;1.65;;;1.20;;
42294;SDS011;27947;47.556;18.718;2023-05-02T00:41:59;3.72;;;1.40;;
42294;SDS011;27947;47.556;18.718;2023-05-02T00:44:25;5.00;;;1.50;;
42294;SDS011;27947;47.556;18.718;2023-05-02T00:46:51;2.40;;;1.17;;
42294;SDS011;27947;47.556;18.718;2023-05-02T00:49:17;2.88;;;1.10;;
42294;SDS011;27947;47.556;18.718;2023-05-02T00:51:43;4.20;;;1.40;;
42294;SDS011;27947;47.556;18.718;2023-05-02T00:54:08;4.60;;;1.10;;
42294;SDS011;27947;47.556;18.718;2023-05-02T00:56:33;4.78;;;1.52;;
42294;SDS011;27947;47.556;18.718;2023-05-02T00:58:59;2.13;;;1.30;;
42294;SDS011;27947;47.556;18.718;2023-05-02T01:01:32;3.85;;;1.55;;
42294;SDS011;27947;47.556;18.718;2023-05-02T01:08:59;3.03;;;1.35;;
42294;SDS011;27947;47.556;18.718;2023-05-02T01:13:54;2.05;;;1.40;;
42294;SDS011;27947;47.556;18.718;2023-05-02T01:16:21;2.42;;;1.23;;
42294;SDS011;27947;47.556;18.718;2023-05-02T01:18:48;1.70;;;1.17;;
42294;SDS011;27947;47.556;18.718;2023-05-02T01:21:14;2.97;;;1.48;;
42294;SDS011;27947;47.556;18.718;2023-05-02T01:23:44;4.28;;;1.55;;
42294;SDS011;27947;47.556;18.718;2023-05-02T01:26:15;2.20;;;1.35;;
42294;SDS011;27947;47.556;18.718;2023-05-02T01:31:09;4.63;;;1.50;;
42294;SDS011;27947;47.556;18.718;2023-05-02T01:33:35;5.65;;;1.60;;
42294;SDS011;27947;47.556;18.718;2023-05-02T01:36:00;2.75;;;1.27;;
42294;SDS011;27947;47.556;18.718;2023-05-02T01:38:27;2.45;;;1.42;;
42294;SDS011;27947;47.556;18.718;2023-05-02T01:40:53;3.05;;;1.35;;
42294;SDS011;27947;47.556;18.718;2023-05-02T01:43:21;3.42;;;1.55;;
42294;SDS011;27947;47.556;18.718;2023-05-02T01:45:47;5.95;;;1.60;;
42294;SDS011;27947;47.556;18.718;2023-05-02T01:48:14;3.88;;;1.33;;
42294;SDS011;27947;47.556;18.718;2023-05-02T01:50:40;2.97;;;1.52;;
42294;SDS011;27947;47.556;18.718;2023-05-02T01:53:07;3.92;;;1.30;;
42294;SDS011;27947;47.556;18.718;2023-05-02T01:55:37;4.50;;;1.52;;
42294;SDS011;27947;47.556;18.718;2023-05-02T01:58:04;1.85;;;1.20;;
42294;SDS011;27947;47.556;18.718;2023-05-02T02:00:30;5.38;;;1.27;;
42294;SDS011;27947;47.556;18.718;2023-05-02T02:02:56;2.00;;;1.35;;
42294;SDS011;27947;47.556;18.718;2023-05-02T02:05:22;3.28;;;1.40;;
42294;SDS011;27947;47.556;18.718;2023-05-02T02:07:48;2.28;;;1.40;;
42294;SDS011;27947;47.556;18.718;2023-05-02T02:10:14;3.40;;;2.35;;
42294;SDS011;27947;47.556;18.718;2023-05-02T02:12:50;2.97;;;1.50;;
42294;SDS011;27947;47.556;18.718;2023-05-02T02:15:24;2.83;;;1.70;;
42294;SDS011;27947;47.556;18.718;2023-05-02T02:17:56;2.63;;;1.50;;
42294;SDS011;27947;47.556;18.718;2023-05-02T02:20:23;3.95;;;1.58;;
42294;SDS011;27947;47.556;18.718;2023-05-02T02:22:49;3.50;;;1.50;;
42294;SDS011;27947;47.556;18.718;2023-05-02T02:25:15;2.38;;;1.27;;
42294;SDS011;27947;47.556;18.718;2023-05-02T02:27:41;3.70;;;1.80;;
42294;SDS011;27947;47.556;18.718;2023-05-02T02:30:07;4.35;;;1.65;;
42294;SDS011;27947;47.556;18.718;2023-05-02T02:32:33;5.72;;;1.95;;
42294;SDS011;27947;47.556;18.718;2023-05-02T02:34:58;2.42;;;1.50;;
42294;SDS011;27947;47.556;18.718;2023-05-02T02:37:31;3.28;;;1.75;;
42294;SDS011;27947;47.556;18.718;2023-05-02T02:42:36;2.97;;;1.90;;
42294;SDS011;27947;47.556;18.718;2023-05-02T02:47:37;3.55;;;1.88;;
42294;SDS011;27947;47.556;18.718;2023-05-02T02:55:11;6.50;;;2.10;;
42294;SDS011;27947;47.556;18.718;2023-05-02T02:57:44;3.40;;;1.80;;
42294;SDS011;27947;47.556;18.718;2023-05-02T03:00:21;4.45;;;1.88;;
42294;SDS011;27947;47.556;18.718;2023-05-02T03:02:48;2.63;;;1.70;;
42294;SDS011;27947;47.556;18.718;2023-05-02T03:05:15;2.47;;;1.75;;
42294;SDS011;27947;47.556;18.718;2023-05-02T03:07:41;5.05;;;2.08;;
42294;SDS011;27947;47.556;18.718;2023-05-02T03:10:06;4.93;;;1.88;;
42294;SDS011;27947;47.556;18.718;2023-05-02T03:12:33;5.90;;;2.25;;
42294;SDS011;27947;47.556;18.718;2023-05-02T03:17:34;4.32;;;2.03;;
42294;SDS011;27947;47.556;18.718;2023-05-02T03:19:59;2.67;;;1.90;;
42294;SDS011;27947;47.556;18.718;2023-05-02T03:22:25;5.45;;;1.88;;
42294;SDS011;27947;47.556;18.718;2023-05-02T03:24:50;5.13;;;2.25;;
42294;SDS011;27947;47.556;18.718;2023-05-02T03:27:16;4.43;;;2.10;;
42294;SDS011;27947;47.556;18.718;2023-05-02T03:29:41;3.97;;;2.15;;
42294;SDS011;27947;47.556;18.718;2023-05-02T03:32:08;4.57;;;1.90;;
42294;SDS011;27947;47.556;18.718;2023-05-02T03:34:35;3.90;;;1.80;;
42294;SDS011;27947;47.556;18.718;2023-05-02T03:37:01;5.15;;;2.13;;
42294;SDS011;27947;47.556;18.718;2023-05-02T03:39:27;6.20;;;2.20;;
42294;SDS011;27947;47.556;18.718;2023-05-02T03:41:53;4.50;;;2.25;;
42294;SDS011;27947;47.556;18.718;2023-05-02T03:44:21;4.90;;;2.05;;
42294;SDS011;27947;47.556;18.718;2023-05-02T03:46:46;6.15;;;2.30;;
42294;SDS011;27947;47.556;18.718;2023-05-02T03:49:12;3.60;;;2.30;;
42294;SDS011;27947;47.556;18.718;2023-05-02T03:51:41;3.60;;;2.05;;
42294;SDS011;27947;47.556;18.718;2023-05-02T03:54:07;3.15;;;2.17;;
42294;SDS011;27947;47.556;18.718;2023-05-02T03:56:34;3.42;;;2.10;;
42294;SDS011;27947;47.556;18.718;2023-05-02T03:59:13;5.65;;;3.17;;
42294;SDS011;27947;47.556;18.718;2023-05-02T04:01:39;4.63;;;2.40;;
42294;SDS011;27947;47.556;18.718;2023-05-02T04:04:06;6.47;;;1.95;;
42294;SDS011;27947;47.556;18.718;2023-05-02T04:06:36;3.70;;;2.00;;
42294;SDS011;27947;47.556;18.718;2023-05-02T04:09:05;3.92;;;2.40;;
42294;SDS011;27947;47.556;18.718;2023-05-02T04:11:38;2.85;;;1.90;;
42294;SDS011;27947;47.556;18.718;2023-05-02T04:14:05;8.75;;;2.33;;
42294;SDS011;27947;47.556;18.718;2023-05-02T04:16:31;3.55;;;2.40;;
42294;SDS011;27947;47.556;18.718;2023-05-02T04:18:56;5.05;;;2.42;;
42294;SDS011;27947;47.556;18.718;2023-05-02T04:21:23;7.63;;;2.40;;
42294;SDS011;27947;47.556;18.718;2023-05-02T04:23:48;6.10;;;2.03;;
42294;SDS011;27947;47.556;18.718;2023-05-02T04:26:14;4.57;;;2.30;;
42294;SDS011;27947;47.556;18.718;2023-05-02T04:28:48;4.07;;;2.22;;
42294;SDS011;27947;47.556;18.718;2023-05-02T04:31:15;4.57;;;2.35;;
42294;SDS011;27947;47.556;18.718;2023-05-02T04:33:42;3.55;;;2.30;;
42294;SDS011;27947;47.556;18.718;2023-05-02T04:36:08;3.10;;;2.05;;
42294;SDS011;27947;47.556;18.718;2023-05-02T04:38:34;3.50;;;2.33;;
42294;SDS011;27947;47.556;18.718;2023-05-02T04:40:59;5.20;;;2.10;;
42294;SDS011;27947;47.556;18.718;2023-05-02T04:43:33;5.82;;;2.42;;
42294;SDS011;27947;47.556;18.718;2023-05-02T04:46:00;5.70;;;2.63;;
42294;SDS011;27947;47.556;18.718;2023-05-02T04:48:30;2.92;;;2.33;;
42294;SDS011;27947;47.556;18.718;2023-05-02T04:50:55;6.32;;;2.28;;
42294;SDS011;27947;47.556;18.718;2023-05-02T04:53:21;5.30;;;2.70;;
42294;SDS011;27947;47.556;18.718;2023-05-02T04:55:47;6.68;;;2.72;;
42294;SDS011;27947;47.556;18.718;2023-05-02T04:58:13;9.20;;;3.10;;
42294;SDS011;27947;47.556;18.718;2023-05-02T05:00:40;9.90;;;3.20;;
42294;SDS011;27947;47.556;18.718;2023-05-02T05:03:05;10.07;;;2.83;;
42294;SDS011;27947;47.556;18.718;2023-05-02T05:05:31;5.85;;;2.50;;
42294;SDS011;27947;47.556;18.718;2023-05-02T05:07:57;4.13;;;2.60;;
42294;SDS011;27947;47.556;18.718;2023-05-02T05:10:25;4.82;;;2.70;;
42294;SDS011;27947;47.556;18.718;2023-05-02T05:12:50;3.50;;;2.35;;
42294;SDS011;27947;47.556;18.718;2023-05-02T05:15:18;5.95;;;2.58;;
42294;SDS011;27947;47.556;18.718;2023-05-02T05:17:51;6.50;;;3.38;;
42294;SDS011;27947;47.556;18.718;2023-05-02T05:20:17;7.35;;;2.72;;
42294;SDS011;27947;47.556;18.718;2023-05-02T05:22:42;4.10;;;2.25;;
42294;SDS011;27947;47.556;18.718;2023-05-02T05:25:10;55.45;;;7.13;;
42294;SDS011;27947;47.556;18.718;2023-05-02T05:27:36;5.43;;;2.60;;
42294;SDS011;27947;47.556;18.718;2023-05-02T05:30:05;6.45;;;2.63;;
42294;SDS011;27947;47.556;18.718;2023-05-02T05:32:33;4.03;;;2.33;;
42294;SDS011;27947;47.556;18.718;2023-05-02T05:35:00;5.13;;;2.65;;
42294;SDS011;27947;47.556;18.718;2023-05-02T05:37:34;8.35;;;2.50;;
42294;SDS011;27947;47.556;18.718;2023-05-02T05:40:07;3.97;;;2.63;;
42294;SDS011;27947;47.556;18.718;2023-05-02T05:42:33;4.55;;;2.50;;
42294;SDS011;27947;47.556;18.718;2023-05-02T05:45:03;5.80;;;2.30;;
42294;SDS011;27947;47.556;18.718;2023-05-02T05:47:28;6.88;;;2.80;;
42294;SDS011;27947;47.556;18.718;2023-05-02T05:49:54;4.85;;;2.47;;
42294;SDS011;27947;47.556;18.718;2023-05-02T05:52:22;6.50;;;2.65;;
42294;SDS011;27947;47.556;18.718;2023-05-02T05:54:48;3.90;;;2.20;;
42294;SDS011;27947;47.556;18.718;2023-05-02T05:57:13;4.90;;;2.33;;
42294;SDS011;27947;47.556;18.718;2023-05-02T05:59:40;5.72;;;2.53;;
42294;SDS011;27947;47.556;18.718;2023-05-02T06:02:06;5.93;;;2.33;;
42294;SDS011;27947;47.556;18.718;2023-05-02T06:04:32;4.85;;;2.55;;
42294;SDS011;27947;47.556;18.718;2023-05-02T06:06:58;4.80;;;2.50;;
42294;SDS011;27947;47.556;18.718;2023-05-02T06:09:23;3.55;;;2.60;;
42294;SDS011;27947;47.556;18.718;2023-05-02T06:11:48;6.68;;;2.80;;
42294;SDS011;27947;47.556;18.718;2023-05-02T06:14:14;7.82;;;2.50;;
42294;SDS011;27947;47.556;18.718;2023-05-02T06:16:41;4.55;;;2.45;;
42294;SDS011;27947;47.556;18.718;2023-05-02T06:19:07;8.60;;;2.63;;
42294;SDS011;27947;47.556;18.718;2023-05-02T06:21:34;7.00;;;2.50;;
42294;SDS011;27947;47.556;18.718;2023-05-02T06:24:00;6.53;;;2.60;;
42294;SDS011;27947;47.556;18.718;2023-05-02T06:26:25;6.93;;;2.33;;
42294;SDS011;27947;47.556;18.718;2023-05-02T06:28:50;4.03;;;2.50;;
42294;SDS011;27947;47.556;18.718;2023-05-02T06:31:16;4.50;;;2.40;;
42294;SDS011;27947;47.556;18.718;2023-05-02T06:33:41;6.43;;;2.50;;
42294;SDS011;27947;47.556;18.718;2023-05-02T06:36:07;6.20;;;2.50;;
42294;SDS011;27947;47.556;18.718;2023-05-02T06:38:32;10.15;;;2.60;;
42294;SDS011;27947;47.556;18.718;2023-05-02T06:40:57;4.50;;;2.35;;
42294;SDS011;27947;47.556;18.718;2023-05-02T06:43:23;5.97;;;2.65;;
42294;SDS011;27947;47.556;18.718;2023-05-02T06:45:51;6.00;;;2.60;;
42294;SDS011;27947;47.556;18.718;2023-05-02T06:48:16;4.85;;;2.45;;
42294;SDS011;27947;47.556;18.718;2023-05-02T06:50:41;4.50;;;2.33;;
42294;SDS011;27947;47.556;18.718;2023-05-02T06:53:07;5.43;;;3.00;;
42294;SDS011;27947;47.556;18.718;2023-05-02T06:55:32;7.00;;;3.25;;
42294;SDS011;27947;47.556;18.718;2023-05-02T06:57:57;11.50;;;2.42;;
42294;SDS011;27947;47.556;18.718;2023-05-02T07:00:23;6.25;;;2.72;;
42294;SDS011;27947;47.556;18.718;2023-05-02T07:02:48;4.18;;;2.40;;
42294;SDS011;27947;47.556;18.718;2023-05-02T07:05:14;4.15;;;2.30;;
42294;SDS011;27947;47.556;18.718;2023-05-02T07:07:40;7.20;;;2.58;;
42294;SDS011;27947;47.556;18.718;2023-05-02T07:10:06;8.00;;;2.90;;
42294;SDS011;27947;47.556;18.718;2023-05-02T07:12:31;6.20;;;2.50;;
42294;SDS011;27947;47.556;18.718;2023-05-02T07:14:57;8.52;;;2.83;;
42294;SDS011;27947;47.556;18.718;2023-05-02T07:17:22;5.53;;;2.50;;
42294;SDS011;27947;47.556;18.718;2023-05-02T07:19:48;5.45;;;2.88;;
42294;SDS011;27947;47.556;18.718;2023-05-02T07:22:13;6.35;;;2.70;;
42294;SDS011;27947;47.556;18.718;2023-05-02T07:24:39;8.07;;;2.70;;
42294;SDS011;27947;47.556;18.718;2023-05-02T07:27:05;3.70;;;2.45;;
42294;SDS011;27947;47.556;18.718;2023-05-02T07:29:31;8.40;;;2.45;;
42294;SDS011;27947;47.556;18.718;2023-05-02T07:31:56;7.72;;;2.83;;
42294;SDS011;27947;47.556;18.718;2023-05-02T07:34:22;5.95;;;2.67;;
42294;SDS011;27947;47.556;18.718;2023-05-02T07:36:47;9.65;;;2.47;;
42294;SDS011;27947;47.556;18.718;2023-05-02T07:39:12;7.60;;;2.97;;
42294;SDS011;27947;47.556;18.718;2023-05-02T07:41:38;5.15;;;2.42;;
42294;SDS011;27947;47.556;18.718;2023-05-02T07:44:03;4.68;;;2.53;;
42294;SDS011;27947;47.556;18.718;2023-05-02T07:46:29;12.45;;;3.25;;
42294;SDS011;27947;47.556;18.718;2023-05-02T07:48:55;6.95;;;2.47;;
42294;SDS011;27947;47.556;18.718;2023-05-02T07:51:20;8.07;;;2.90;;
42294;SDS011;27947;47.556;18.718;2023-05-02T07:53:49;7.50;;;2.50;;
42294;SDS011;27947;47.556;18.718;2023-05-02T07:56:14;7.25;;;2.67;;
42294;SDS011;27947;47.556;18.718;2023-05-02T07:58:39;4.35;;;2.30;;
42294;SDS011;27947;47.556;18.718;2023-05-02T08:01:05;5.15;;;2.50;;
42294;SDS011;27947;47.556;18.718;2023-05-02T08:03:30;5.40;;;2.53;;
42294;SDS011;27947;47.556;18.718;2023-05-02T08:05:56;7.85;;;2.80;;
42294;SDS011;27947;47.556;18.718;2023-05-02T08:08:21;5.30;;;2.80;;
42294;SDS011;27947;47.556;18.718;2023-05-02T08:10:47;8.07;;;2.72;;
42294;SDS011;27947;47.556;18.718;2023-05-02T08:13:14;5.72;;;2.78;;
42294;SDS011;27947;47.556;18.718;2023-05-02T08:15:39;4.93;;;2.55;;
42294;SDS011;27947;47.556;18.718;2023-05-02T08:18:05;5.68;;;2.58;;
42294;SDS011;27947;47.556;18.718;2023-05-02T08:20:31;4.35;;;2.20;;
42294;SDS011;27947;47.556;18.718;2023-05-02T08:22:56;3.28;;;2.22;;
42294;SDS011;27947;47.556;18.718;2023-05-02T08:25:21;5.07;;;2.63;;
42294;SDS011;27947;47.556;18.718;2023-05-02T08:27:47;7.78;;;2.50;;
42294;SDS011;27947;47.556;18.718;2023-05-02T08:30:12;10.05;;;2.42;;
42294;SDS011;27947;47.556;18.718;2023-05-02T08:32:37;9.98;;;2.55;;
42294;SDS011;27947;47.556;18.718;2023-05-02T08:35:03;5.13;;;2.83;;
42294;SDS011;27947;47.556;18.718;2023-05-02T08:37:28;4.00;;;2.42;;
42294;SDS011;27947;47.556;18.718;2023-05-02T08:39:53;11.95;;;2.72;;
42294;SDS011;27947;47.556;18.718;2023-05-02T08:42:19;8.73;;;2.10;;
42294;SDS011;27947;47.556;18.718;2023-05-02T08:44:45;4.93;;;2.50;;
42294;SDS011;27947;47.556;18.718;2023-05-02T08:47:11;5.70;;;2.25;;
42294;SDS011;27947;47.556;18.718;2023-05-02T08:49:37;10.60;;;2.20;;
42294;SDS011;27947;47.556;18.718;2023-05-02T08:52:03;4.93;;;2.00;;
42294;SDS011;27947;47.556;18.718;2023-05-02T08:54:28;3.25;;;2.17;;
42294;SDS011;27947;47.556;18.718;2023-05-02T08:56:54;5.03;;;2.22;;
42294;SDS011;27947;47.556;18.718;2023-05-02T08:59:20;4.47;;;2.40;;
42294;SDS011;27947;47.556;18.718;2023-05-02T09:01:46;5.05;;;2.63;;
42294;SDS011;27947;47.556;18.718;2023-05-02T09:04:13;4.57;;;2.50;;
42294;SDS011;27947;47.556;18.718;2023-05-02T09:06:39;6.28;;;2.40;;
42294;SDS011;27947;47.556;18.718;2023-05-02T09:09:04;4.65;;;2.15;;
42294;SDS011;27947;47.556;18.718;2023-05-02T09:11:29;4.60;;;2.58;;
42294;SDS011;27947;47.556;18.718;2023-05-02T09:13:55;7.35;;;2.58;;
42294;SDS011;27947;47.556;18.718;2023-05-02T09:16:23;4.63;;;2.22;;
42294;SDS011;27947;47.556;18.718;2023-05-02T09:18:55;3.22;;;1.85;;
42294;SDS011;27947;47.556;18.718;2023-05-02T09:21:22;8.57;;;1.85;;
42294;SDS011;27947;47.556;18.718;2023-05-02T09:23:50;4.65;;;2.00;;
42294;SDS011;27947;47.556;18.718;2023-05-02T09:26:16;5.55;;;2.47;;
42294;SDS011;27947;47.556;18.718;2023-05-02T09:28:52;4.47;;;1.90;;
42294;SDS011;27947;47.556;18.718;2023-05-02T09:31:18;4.38;;;1.88;;
42294;SDS011;27947;47.556;18.718;2023-05-02T09:33:44;9.27;;;1.95;;
42294;SDS011;27947;47.556;18.718;2023-05-02T09:36:13;5.78;;;2.03;;
42294;SDS011;27947;47.556;18.718;2023-05-02T09:38:39;6.53;;;1.92;;
42294;SDS011;27947;47.556;18.718;2023-05-02T09:41:05;7.93;;;2.70;;
42294;SDS011;27947;47.556;18.718;2023-05-02T09:43:30;9.23;;;2.22;;
42294;SDS011;27947;47.556;18.718;2023-05-02T09:45:57;6.38;;;2.20;;
42294;SDS011;27947;47.556;18.718;2023-05-02T09:48:22;7.40;;;2.13;;
42294;SDS011;27947;47.556;18.718;2023-05-02T09:50:48;3.75;;;2.03;;
42294;SDS011;27947;47.556;18.718;2023-05-02T09:53:13;4.43;;;2.10;;
42294;SDS011;27947;47.556;18.718;2023-05-02T09:55:38;7.15;;;2.35;;
42294;SDS011;27947;47.556;18.718;2023-05-02T09:58:04;3.58;;;2.08;;
42294;SDS011;27947;47.556;18.718;2023-05-02T10:00:40;7.47;;;2.10;;
42294;SDS011;27947;47.556;18.718;2023-05-02T10:03:06;4.82;;;2.47;;
42294;SDS011;27947;47.556;18.718;2023-05-02T10:05:34;5.80;;;1.98;;
42294;SDS011;27947;47.556;18.718;2023-05-02T10:08:00;7.13;;;2.03;;
42294;SDS011;27947;47.556;18.718;2023-05-02T10:10:27;4.28;;;1.98;;
42294;SDS011;27947;47.556;18.718;2023-05-02T10:12:53;3.35;;;1.88;;
42294;SDS011;27947;47.556;18.718;2023-05-02T10:15:19;4.40;;;2.05;;
42294;SDS011;27947;47.556;18.718;2023-05-02T10:17:47;6.88;;;2.25;;
42294;SDS011;27947;47.556;18.718;2023-05-02T10:20:13;5.70;;;1.88;;
42294;SDS011;27947;47.556;18.718;2023-05-02T10:22:42;6.60;;;2.47;;
42294;SDS011;27947;47.556;18.718;2023-05-02T10:25:09;4.55;;;1.58;;
42294;SDS011;27947;47.556;18.718;2023-05-02T10:27:36;2.90;;;1.92;;
42294;SDS011;27947;47.556;18.718;2023-05-02T10:30:01;4.35;;;2.00;;
42294;SDS011;27947;47.556;18.718;2023-05-02T10:32:28;3.50;;;1.80;;
42294;SDS011;27947;47.556;18.718;2023-05-02T10:35:01;6.85;;;2.10;;
42294;SDS011;27947;47.556;18.718;2023-05-02T10:37:27;10.02;;;1.90;;
42294;SDS011;27947;47.556;18.718;2023-05-02T10:39:53;7.45;;;2.47;;
42294;SDS011;27947;47.556;18.718;2023-05-02T10:42:18;15.80;;;2.45;;
42294;SDS011;27947;47.556;18.718;2023-05-02T10:44:44;3.75;;;1.58;;
42294;SDS011;27947;47.556;18.718;2023-05-02T10:47:23;3.88;;;1.70;;
42294;SDS011;27947;47.556;18.718;2023-05-02T10:49:49;4.57;;;1.80;;
42294;SDS011;27947;47.556;18.718;2023-05-02T10:54:52;4.63;;;1.65;;
42294;SDS011;27947;47.556;18.718;2023-05-02T10:57:53;5.00;;;1.90;;
42294;SDS011;27947;47.556;18.718;2023-05-02T11:00:31;3.80;;;1.50;;
42294;SDS011;27947;47.556;18.718;2023-05-02T11:02:57;4.07;;;1.65;;
42294;SDS011;27947;47.556;18.718;2023-05-02T11:05:24;4.03;;;2.00;;
42294;SDS011;27947;47.556;18.718;2023-05-02T11:10:48;5.32;;;2.17;;
42294;SDS011;27947;47.556;18.718;2023-05-02T11:13:13;4.30;;;2.00;;
42294;SDS011;27947;47.556;18.718;2023-05-02T11:18:04;2.33;;;1.77;;
42294;SDS011;27947;47.556;18.718;2023-05-02T11:20:33;6.35;;;2.03;;
42294;SDS011;27947;47.556;18.718;2023-05-02T11:25:55;6.70;;;2.20;;
42294;SDS011;27947;47.556;18.718;2023-05-02T11:31:00;14.15;;;2.40;;
42294;SDS011;27947;47.556;18.718;2023-05-02T11:33:28;5.85;;;1.77;;
42294;SDS011;27947;47.556;18.718;2023-05-02T11:35:54;6.07;;;2.10;;
42294;SDS011;27947;47.556;18.718;2023-05-02T11:38:23;9.48;;;1.98;;
42294;SDS011;27947;47.556;18.718;2023-05-02T11:40:52;5.32;;;2.08;;
42294;SDS011;27947;47.556;18.718;2023-05-02T11:43:19;5.70;;;1.73;;
42294;SDS011;27947;47.556;18.718;2023-05-02T11:45:45;6.88;;;2.13;;
42294;SDS011;27947;47.556;18.718;2023-05-02T11:48:11;2.83;;;2.40;;
42294;SDS011;27947;47.556;18.718;2023-05-02T11:51:21;5.78;;;2.17;;
42294;SDS011;27947;47.556;18.718;2023-05-02T11:53:29;7.20;;;2.20;;
42294;SDS011;27947;47.556;18.718;2023-05-02T11:55:56;3.63;;;2.13;;
42294;SDS011;27947;47.556;18.718;2023-05-02T11:58:22;6.25;;;2.25;;
42294;SDS011;27947;47.556;18.718;2023-05-02T12:00:48;11.02;;;2.60;;
42294;SDS011;27947;47.556;18.718;2023-05-02T12:03:32;8.32;;;2.20;;
42294;SDS011;27947;47.556;18.718;2023-05-02T12:06:07;6.75;;;2.50;;
42294;SDS011;27947;47.556;18.718;2023-05-02T12:08:36;4.68;;;2.65;;
42294;SDS011;27947;47.556;18.718;2023-05-02T12:11:01;6.43;;;2.38;;
42294;SDS011;27947;47.556;18.718;2023-05-02T12:13:27;5.85;;;2.20;;
42294;SDS011;27947;47.556;18.718;2023-05-02T12:15:53;3.58;;;2.00;;
42294;SDS011;27947;47.556;18.718;2023-05-02T12:18:19;3.63;;;2.15;;
42294;SDS011;27947;47.556;18.718;2023-05-02T12:20:47;8.45;;;2.03;;
42294;SDS011;27947;47.556;18.718;2023-05-02T12:23:13;3.88;;;1.77;;
42294;SDS011;27947;47.556;18.718;2023-05-02T12:25:39;8.50;;;2.97;;
42294;SDS011;27947;47.556;18.718;2023-05-02T12:28:05;9.00;;;2.53;;
42294;SDS011;27947;47.556;18.718;2023-05-02T12:30:31;4.47;;;2.00;;
42294;SDS011;27947;47.556;18.718;2023-05-02T12:32:58;6.35;;;2.22;;
42294;SDS011;27947;47.556;18.718;2023-05-02T12:35:23;3.08;;;1.80;;
42294;SDS011;27947;47.556;18.718;2023-05-02T12:37:49;5.72;;;1.98;;
42294;SDS011;27947;47.556;18.718;2023-05-02T12:40:14;6.10;;;2.33;;
42294;SDS011;27947;47.556;18.718;2023-05-02T12:42:41;10.13;;;1.98;;
42294;SDS011;27947;47.556;18.718;2023-05-02T12:45:16;3.50;;;1.52;;
42294;SDS011;27947;47.556;18.718;2023-05-02T12:47:44;4.80;;;1.83;;
42294;SDS011;27947;47.556;18.718;2023-05-02T12:50:10;8.77;;;1.60;;
42294;SDS011;27947;47.556;18.718;2023-05-02T12:52:48;6.45;;;1.65;;
42294;SDS011;27947;47.556;18.718;2023-05-02T12:55:15;7.15;;;2.00;;
42294;SDS011;27947;47.556;18.718;2023-05-02T12:57:40;3.72;;;1.88;;
42294;SDS011;27947;47.556;18.718;2023-05-02T13:00:06;5.25;;;1.67;;
42294;SDS011;27947;47.556;18.718;2023-05-02T13:02:32;7.28;;;1.80;;
42294;SDS011;27947;47.556;18.718;2023-05-02T13:04:57;9.32;;;1.90;;
42294;SDS011;27947;47.556;18.718;2023-05-02T13:07:23;7.32;;;1.65;;
42294;SDS011;27947;47.556;18.718;2023-05-02T13:09:48;5.50;;;1.73;;
42294;SDS011;27947;47.556;18.718;2023-05-02T13:12:13;3.47;;;1.70;;
42294;SDS011;27947;47.556;18.718;2023-05-02T13:14:39;7.05;;;1.90;;
42294;SDS011;27947;47.556;18.718;2023-05-02T13:17:04;5.00;;;1.50;;
42294;SDS011;27947;47.556;18.718;2023-05-02T13:19:30;5.68;;;1.55;;
42294;SDS011;27947;47.556;18.718;2023-05-02T13:21:55;9.23;;;2.00;;
42294;SDS011;27947;47.556;18.718;2023-05-02T13:24:21;13.05;;;2.30;;
42294;SDS011;27947;47.556;18.718;2023-05-02T13:26:46;8.70;;;2.10;;
42294;SDS011;27947;47.556;18.718;2023-05-02T13:29:11;8.25;;;2.10;;
42294;SDS011;27947;47.556;18.718;2023-05-02T13:31:37;3.22;;;1.85;;
42294;SDS011;27947;47.556;18.718;2023-05-02T13:34:02;4.55;;;1.95;;
42294;SDS011;27947;47.556;18.718;2023-05-02T13:36:28;8.80;;;2.10;;
42294;SDS011;27947;47.556;18.718;2023-05-02T13:38:53;6.53;;;2.08;;
42294;SDS011;27947;47.556;18.718;2023-05-02T13:41:19;9.40;;;2.17;;
42294;SDS011;27947;47.556;18.718;2023-05-02T13:43:45;7.40;;;2.08;;
42294;SDS011;27947;47.556;18.718;2023-05-02T13:46:10;9.88;;;2.05;;
42294;SDS011;27947;47.556;18.718;2023-05-02T13:48:36;9.90;;;2.60;;
42294;SDS011;27947;47.556;18.718;2023-05-02T13:51:01;8.70;;;1.88;;
42294;SDS011;27947;47.556;18.718;2023-05-02T13:53:27;12.70;;;2.17;;
42294;SDS011;27947;47.556;18.718;2023-05-02T13:55:52;10.15;;;1.80;;
42294;SDS011;27947;47.556;18.718;2023-05-02T13:58:18;11.13;;;2.17;;
42294;SDS011;27947;47.556;18.718;2023-05-02T14:00:43;8.85;;;2.17;;
42294;SDS011;27947;47.556;18.718;2023-05-02T14:03:08;10.00;;;2.80;;
42294;SDS011;27947;47.556;18.718;2023-05-02T14:05:35;5.72;;;1.75;;
42294;SDS011;27947;47.556;18.718;2023-05-02T14:08:00;19.27;;;2.55;;
42294;SDS011;27947;47.556;18.718;2023-05-02T14:10:26;19.65;;;2.50;;
42294;SDS011;27947;47.556;18.718;2023-05-02T14:12:51;6.72;;;2.00;;
42294;SDS011;27947;47.556;18.718;2023-05-02T14:15:17;10.70;;;2.00;;
42294;SDS011;27947;47.556;18.718;2023-05-02T14:17:42;10.50;;;2.03;;
42294;SDS011;27947;47.556;18.718;2023-05-02T14:20:08;9.43;;;2.30;;
42294;SDS011;27947;47.556;18.718;2023-05-02T14:22:34;9.13;;;2.15;;
42294;SDS011;27947;47.556;18.718;2023-05-02T14:25:00;13.93;;;2.00;;
42294;SDS011;27947;47.556;18.718;2023-05-02T14:27:25;13.55;;;2.30;;
42294;SDS011;27947;47.556;18.718;2023-05-02T14:29:50;10.15;;;2.05;;
42294;SDS011;27947;47.556;18.718;2023-05-02T14:32:16;11.05;;;2.30;;
42294;SDS011;27947;47.556;18.718;2023-05-02T14:34:41;8.05;;;2.40;;
42294;SDS011;27947;47.556;18.718;2023-05-02T14:37:07;12.05;;;2.30;;
42294;SDS011;27947;47.556;18.718;2023-05-02T14:39:35;9.98;;;2.28;;
42294;SDS011;27947;47.556;18.718;2023-05-02T14:42:01;9.50;;;2.20;;
42294;SDS011;27947;47.556;18.718;2023-05-02T14:44:28;5.68;;;2.45;;
42294;SDS011;27947;47.556;18.718;2023-05-02T14:46:53;7.18;;;2.17;;
42294;SDS011;27947;47.556;18.718;2023-05-02T14:49:20;14.82;;;2.53;;
42294;SDS011;27947;47.556;18.718;2023-05-02T14:51:45;13.00;;;2.47;;
42294;SDS011;27947;47.556;18.718;2023-05-02T14:54:12;13.57;;;2.40;;
42294;SDS011;27947;47.556;18.718;2023-05-02T14:56:39;6.72;;;2.40;;
42294;SDS011;27947;47.556;18.718;2023-05-02T14:59:05;4.75;;;2.45;;
42294;SDS011;27947;47.556;18.718;2023-05-02T15:01:30;13.90;;;2.42;;
42294;SDS011;27947;47.556;18.718;2023-05-02T15:03:55;11.75;;;2.50;;
42294;SDS011;27947;47.556;18.718;2023-05-02T15:06:21;8.38;;;2.13;;